sensor_id;sensor_type;location;lat;lon;timestamp;temperature;humidity
11836;DHT22;5977;51.972;7.640;2022-12-29T00:02:19;18.40;94.10
11836;DHT22;5977;51.972;7.640;2022-12-29T00:04:50;18.30;94.00
11836;DHT22;5977;51.972;7.640;2022-12-29T00:07:18;18.10;94.00
11836;DHT22;5977;51.972;7.640;2022-12-29T00:09:46;18.20;94.70
11836;DHT22;5977;51.972;7.640;2022-12-29T00:12:14;18.40;94.80
11836;DHT22;5977;51.972;7.640;2022-12-29T00:14:42;18.30;94.40
11836;DHT22;5977;51.972;7.640;2022-12-29T00:17:43;18.30;94.10
11836;DHT22;5977;51.972;7.640;2022-12-29T00:20:12;18.30;94.50
11836;DHT22;5977;51.972;7.640;2022-12-29T00:22:57;18.20;94.20
11836;DHT22;5977;51.972;7.640;2022-12-29T00:25:43;18.20;94.50
11836;DHT22;5977;51.972;7.640;2022-12-29T00:28:29;18.30;94.60
11836;DHT22;5977;51.972;7.640;2022-12-29T00:31:15;18.40;94.50
11836;DHT22;5977;51.972;7.640;2022-12-29T00:34:12;18.30;94.40
11836;DHT22;5977;51.972;7.640;2022-12-29T00:36:58;18.20;94.60
11836;DHT22;5977;51.972;7.640;2022-12-29T00:39:26;18.30;94.80
11836;DHT22;5977;51.972;7.640;2022-12-29T00:42:12;18.50;94.70
11836;DHT22;5977;51.972;7.640;2022-12-29T00:44:59;18.40;95.00
11836;DHT22;5977;51.972;7.640;2022-12-29T00:47:28;18.30;94.70
11836;DHT22;5977;51.972;7.640;2022-12-29T00:49:56;18.50;95.10
11836;DHT22;5977;51.972;7.640;2022-12-29T00:52:25;18.40;95.20
11836;DHT22;5977;51.972;7.640;2022-12-29T00:54:52;18.30;94.80
11836;DHT22;5977;51.972;7.640;2022-12-29T00:57:20;18.30;95.20
11836;DHT22;5977;51.972;7.640;2022-12-29T00:59:48;18.20;95.50
11836;DHT22;5977;51.972;7.640;2022-12-29T01:02:16;18.40;95.50
11836;DHT22;5977;51.972;7.640;2022-12-29T01:04:46;18.30;95.30
11836;DHT22;5977;51.972;7.640;2022-12-29T01:07:15;18.30;95.80
11836;DHT22;5977;51.972;7.640;2022-12-29T01:09:45;18.40;95.70
11836;DHT22;5977;51.972;7.640;2022-12-29T01:12:33;18.30;95.70
11836;DHT22;5977;51.972;7.640;2022-12-29T01:15:13;18.30;95.80
11836;DHT22;5977;51.972;7.640;2022-12-29T01:17:41;18.30;95.60
11836;DHT22;5977;51.972;7.640;2022-12-29T01:20:10;18.30;95.90
11836;DHT22;5977;51.972;7.640;2022-12-29T01:22:39;18.10;96.10
11836;DHT22;5977;51.972;7.640;2022-12-29T01:25:10;18.10;96.30
11836;DHT22;5977;51.972;7.640;2022-12-29T01:27:38;18.20;96.40
11836;DHT22;5977;51.972;7.640;2022-12-29T01:30:07;18.30;96.30
11836;DHT22;5977;51.972;7.640;2022-12-29T01:32:35;18.20;96.10
11836;DHT22;5977;51.972;7.640;2022-12-29T01:35:03;18.20;96.10
11836;DHT22;5977;51.972;7.640;2022-12-29T01:37:33;18.20;96.40
11836;DHT22;5977;51.972;7.640;2022-12-29T01:40:01;18.20;96.90
11836;DHT22;5977;51.972;7.640;2022-12-29T01:42:32;18.30;96.70
11836;DHT22;5977;51.972;7.640;2022-12-29T01:45:02;18.20;97.10
11836;DHT22;5977;51.972;7.640;2022-12-29T01:47:34;18.20;97.30
11836;DHT22;5977;51.972;7.640;2022-12-29T01:50:07;18.20;98.10
11836;DHT22;5977;51.972;7.640;2022-12-29T01:52:38;18.30;98.00
11836;DHT22;5977;51.972;7.640;2022-12-29T01:55:08;18.30;97.30
11836;DHT22;5977;51.972;7.640;2022-12-29T01:57:43;18.30;96.90
11836;DHT22;5977;51.972;7.640;2022-12-29T02:00:14;18.20;97.40
11836;DHT22;5977;51.972;7.640;2022-12-29T02:02:49;18.20;96.90
11836;DHT22;5977;51.972;7.640;2022-12-29T02:05:23;18.20;97.80
11836;DHT22;5977;51.972;7.640;2022-12-29T02:07:53;18.20;97.70
11836;DHT22;5977;51.972;7.640;2022-12-29T02:10:23;18.30;97.70
11836;DHT22;5977;51.972;7.640;2022-12-29T02:12:53;18.10;97.20
11836;DHT22;5977;51.972;7.640;2022-12-29T02:15:31;18.20;97.10
11836;DHT22;5977;51.972;7.640;2022-12-29T02:18:11;18.10;97.60
11836;DHT22;5977;51.972;7.640;2022-12-29T02:21:17;18.10;97.20
11836;DHT22;5977;51.972;7.640;2022-12-29T02:24:11;18.10;96.90
11836;DHT22;5977;51.972;7.640;2022-12-29T02:27:01;18.20;97.80
11836;DHT22;5977;51.972;7.640;2022-12-29T02:29:53;18.20;97.40
11836;DHT22;5977;51.972;7.640;2022-12-29T02:32:37;18.30;97.50
11836;DHT22;5977;51.972;7.640;2022-12-29T02:35:10;18.30;97.70
11836;DHT22;5977;51.972;7.640;2022-12-29T02:37:46;18.30;97.50
11836;DHT22;5977;51.972;7.640;2022-12-29T02:40:23;18.20;97.80
11836;DHT22;5977;51.972;7.640;2022-12-29T02:43:06;18.30;97.80
11836;DHT22;5977;51.972;7.640;2022-12-29T02:45:44;18.40;97.80
11836;DHT22;5977;51.972;7.640;2022-12-29T02:48:20;18.20;97.20
11836;DHT22;5977;51.972;7.640;2022-12-29T02:50:54;18.10;97.40
11836;DHT22;5977;51.972;7.640;2022-12-29T02:53:25;18.20;98.00
11836;DHT22;5977;51.972;7.640;2022-12-29T02:56:08;18.20;97.30
11836;DHT22;5977;51.972;7.640;2022-12-29T02:58:35;18.30;97.60
11836;DHT22;5977;51.972;7.640;2022-12-29T03:01:14;18.20;97.10
11836;DHT22;5977;51.972;7.640;2022-12-29T03:03:55;18.20;97.30
11836;DHT22;5977;51.972;7.640;2022-12-29T03:06:35;18.20;97.00
11836;DHT22;5977;51.972;7.640;2022-12-29T03:09:16;18.20;97.30
11836;DHT22;5977;51.972;7.640;2022-12-29T03:11:53;18.10;96.80
11836;DHT22;5977;51.972;7.640;2022-12-29T03:14:48;18.10;97.10
11836;DHT22;5977;51.972;7.640;2022-12-29T03:17:40;18.20;97.50
11836;DHT22;5977;51.972;7.640;2022-12-29T03:20:16;18.20;97.50
11836;DHT22;5977;51.972;7.640;2022-12-29T03:22:56;18.20;97.10
11836;DHT22;5977;51.972;7.640;2022-12-29T03:25:30;18.30;97.80
11836;DHT22;5977;51.972;7.640;2022-12-29T03:28:03;18.30;97.60
11836;DHT22;5977;51.972;7.640;2022-12-29T03:30:39;18.40;97.50
11836;DHT22;5977;51.972;7.640;2022-12-29T03:33:12;18.40;97.10
11836;DHT22;5977;51.972;7.640;2022-12-29T03:35:44;18.40;97.40
11836;DHT22;5977;51.972;7.640;2022-12-29T03:38:16;18.30;96.20
11836;DHT22;5977;51.972;7.640;2022-12-29T03:40:48;18.30;96.00
11836;DHT22;5977;51.972;7.640;2022-12-29T03:43:17;18.40;97.00
11836;DHT22;5977;51.972;7.640;2022-12-29T03:45:46;18.40;97.10
11836;DHT22;5977;51.972;7.640;2022-12-29T03:48:14;18.30;96.70
11836;DHT22;5977;51.972;7.640;2022-12-29T03:50:44;18.30;96.80
11836;DHT22;5977;51.972;7.640;2022-12-29T03:53:12;18.30;96.40
11836;DHT22;5977;51.972;7.640;2022-12-29T03:55:41;18.40;96.30
11836;DHT22;5977;51.972;7.640;2022-12-29T03:58:10;18.40;96.10
11836;DHT22;5977;51.972;7.640;2022-12-29T04:01:07;18.30;95.70
11836;DHT22;5977;51.972;7.640;2022-12-29T04:03:37;18.40;95.90
11836;DHT22;5977;51.972;7.640;2022-12-29T04:06:08;18.30;95.90
11836;DHT22;5977;51.972;7.640;2022-12-29T04:08:45;18.40;95.80
11836;DHT22;5977;51.972;7.640;2022-12-29T04:11:13;18.40;95.70
11836;DHT22;5977;51.972;7.640;2022-12-29T04:13:41;18.30;94.80
11836;DHT22;5977;51.972;7.640;2022-12-29T04:16:13;18.30;95.60
11836;DHT22;5977;51.972;7.640;2022-12-29T04:18:41;18.20;95.40
11836;DHT22;5977;51.972;7.640;2022-12-29T04:21:10;18.10;95.90
11836;DHT22;5977;51.972;7.640;2022-12-29T04:23:41;18.10;94.90
11836;DHT22;5977;51.972;7.640;2022-12-29T04:26:10;18.10;95.90
11836;DHT22;5977;51.972;7.640;2022-12-29T04:28:59;18.10;95.80
11836;DHT22;5977;51.972;7.640;2022-12-29T04:31:41;18.00;95.50
11836;DHT22;5977;51.972;7.640;2022-12-29T04:34:10;18.10;95.90
11836;DHT22;5977;51.972;7.640;2022-12-29T04:36:39;18.10;95.70
11836;DHT22;5977;51.972;7.640;2022-12-29T04:39:07;18.20;95.70
11836;DHT22;5977;51.972;7.640;2022-12-29T04:41:37;18.10;95.80
11836;DHT22;5977;51.972;7.640;2022-12-29T04:44:08;18.10;95.70
11836;DHT22;5977;51.972;7.640;2022-12-29T04:47:05;18.10;95.90
11836;DHT22;5977;51.972;7.640;2022-12-29T04:49:53;18.10;96.00
11836;DHT22;5977;51.972;7.640;2022-12-29T04:52:43;18.20;96.10
11836;DHT22;5977;51.972;7.640;2022-12-29T04:55:13;18.10;95.60
11836;DHT22;5977;51.972;7.640;2022-12-29T04:57:41;18.30;96.10
11836;DHT22;5977;51.972;7.640;2022-12-29T05:00:13;18.20;96.00
11836;DHT22;5977;51.972;7.640;2022-12-29T05:02:41;18.20;95.90
11836;DHT22;5977;51.972;7.640;2022-12-29T05:05:10;18.10;95.80
11836;DHT22;5977;51.972;7.640;2022-12-29T05:07:43;18.20;95.90
11836;DHT22;5977;51.972;7.640;2022-12-29T05:10:11;18.10;96.10
11836;DHT22;5977;51.972;7.640;2022-12-29T05:12:40;18.10;96.30
11836;DHT22;5977;51.972;7.640;2022-12-29T05:15:09;18.20;96.40
11836;DHT22;5977;51.972;7.640;2022-12-29T05:17:37;18.20;96.80
11836;DHT22;5977;51.972;7.640;2022-12-29T05:20:08;17.80;95.20
11836;DHT22;5977;51.972;7.640;2022-12-29T05:22:36;17.50;95.50
11836;DHT22;5977;51.972;7.640;2022-12-29T05:25:08;17.70;95.80
11836;DHT22;5977;51.972;7.640;2022-12-29T05:27:50;17.90;95.60
11836;DHT22;5977;51.972;7.640;2022-12-29T05:30:39;18.00;95.30
11836;DHT22;5977;51.972;7.640;2022-12-29T05:33:07;18.20;95.40
11836;DHT22;5977;51.972;7.640;2022-12-29T05:35:38;18.10;95.20
11836;DHT22;5977;51.972;7.640;2022-12-29T05:38:06;18.20;95.20
11836;DHT22;5977;51.972;7.640;2022-12-29T05:40:36;18.30;95.20
11836;DHT22;5977;51.972;7.640;2022-12-29T05:43:11;18.20;94.70
11836;DHT22;5977;51.972;7.640;2022-12-29T05:45:53;18.30;94.90
11836;DHT22;5977;51.972;7.640;2022-12-29T05:48:45;18.10;94.80
11836;DHT22;5977;51.972;7.640;2022-12-29T05:51:19;18.20;95.10
11836;DHT22;5977;51.972;7.640;2022-12-29T05:53:50;18.30;95.10
11836;DHT22;5977;51.972;7.640;2022-12-29T05:56:19;18.30;95.00
11836;DHT22;5977;51.972;7.640;2022-12-29T05:58:53;18.20;94.90
11836;DHT22;5977;51.972;7.640;2022-12-29T06:01:22;18.30;95.20
11836;DHT22;5977;51.972;7.640;2022-12-29T06:03:50;18.40;95.00
11836;DHT22;5977;51.972;7.640;2022-12-29T06:06:20;18.40;95.00
11836;DHT22;5977;51.972;7.640;2022-12-29T06:08:48;18.50;94.90
11836;DHT22;5977;51.972;7.640;2022-12-29T06:11:19;18.50;94.70
11836;DHT22;5977;51.972;7.640;2022-12-29T06:13:51;18.40;94.70
11836;DHT22;5977;51.972;7.640;2022-12-29T06:16:19;18.50;94.70
11836;DHT22;5977;51.972;7.640;2022-12-29T06:18:50;18.50;94.80
11836;DHT22;5977;51.972;7.640;2022-12-29T06:21:18;18.50;94.80
11836;DHT22;5977;51.972;7.640;2022-12-29T06:23:46;18.50;95.00
11836;DHT22;5977;51.972;7.640;2022-12-29T06:26:13;18.60;94.90
11836;DHT22;5977;51.972;7.640;2022-12-29T06:28:43;18.40;94.80
11836;DHT22;5977;51.972;7.640;2022-12-29T06:31:11;18.40;94.90
11836;DHT22;5977;51.972;7.640;2022-12-29T06:33:40;18.40;94.70
11836;DHT22;5977;51.972;7.640;2022-12-29T06:36:09;18.40;95.10
11836;DHT22;5977;51.972;7.640;2022-12-29T06:38:37;18.50;95.20
11836;DHT22;5977;51.972;7.640;2022-12-29T06:41:05;18.50;94.90
11836;DHT22;5977;51.972;7.640;2022-12-29T06:43:46;18.50;94.80
11836;DHT22;5977;51.972;7.640;2022-12-29T06:46:20;18.40;94.60
11836;DHT22;5977;51.972;7.640;2022-12-29T06:48:48;18.50;94.80
11836;DHT22;5977;51.972;7.640;2022-12-29T06:51:16;18.50;94.80
11836;DHT22;5977;51.972;7.640;2022-12-29T06:53:43;18.60;94.90
11836;DHT22;5977;51.972;7.640;2022-12-29T06:56:11;18.60;95.00
11836;DHT22;5977;51.972;7.640;2022-12-29T06:58:39;18.40;94.50
11836;DHT22;5977;51.972;7.640;2022-12-29T07:01:08;18.40;94.70
11836;DHT22;5977;51.972;7.640;2022-12-29T07:03:37;18.40;94.60
11836;DHT22;5977;51.972;7.640;2022-12-29T07:06:05;18.50;94.80
11836;DHT22;5977;51.972;7.640;2022-12-29T07:08:33;18.40;94.50
11836;DHT22;5977;51.972;7.640;2022-12-29T07:11:01;18.30;94.70
11836;DHT22;5977;51.972;7.640;2022-12-29T07:13:28;18.40;94.50
11836;DHT22;5977;51.972;7.640;2022-12-29T07:15:56;18.40;94.60
11836;DHT22;5977;51.972;7.640;2022-12-29T07:18:25;18.50;94.70
11836;DHT22;5977;51.972;7.640;2022-12-29T07:20:53;18.50;94.50
11836;DHT22;5977;51.972;7.640;2022-12-29T07:23:21;18.50;94.50
11836;DHT22;5977;51.972;7.640;2022-12-29T07:25:49;18.40;94.20
11836;DHT22;5977;51.972;7.640;2022-12-29T07:28:17;18.50;94.40
11836;DHT22;5977;51.972;7.640;2022-12-29T07:30:46;18.50;94.50
11836;DHT22;5977;51.972;7.640;2022-12-29T07:33:13;18.40;94.40
11836;DHT22;5977;51.972;7.640;2022-12-29T07:35:43;18.60;94.50
11836;DHT22;5977;51.972;7.640;2022-12-29T07:38:10;18.60;94.50
11836;DHT22;5977;51.972;7.640;2022-12-29T07:40:38;18.60;94.20
11836;DHT22;5977;51.972;7.640;2022-12-29T07:43:06;18.50;94.30
11836;DHT22;5977;51.972;7.640;2022-12-29T07:45:43;18.50;94.30
11836;DHT22;5977;51.972;7.640;2022-12-29T07:48:11;18.70;94.20
11836;DHT22;5977;51.972;7.640;2022-12-29T07:50:39;18.60;94.20
11836;DHT22;5977;51.972;7.640;2022-12-29T07:53:08;18.60;94.40
11836;DHT22;5977;51.972;7.640;2022-12-29T07:55:36;18.60;94.00
11836;DHT22;5977;51.972;7.640;2022-12-29T07:58:04;18.70;94.20
11836;DHT22;5977;51.972;7.640;2022-12-29T08:00:32;18.50;93.80
11836;DHT22;5977;51.972;7.640;2022-12-29T08:03:00;18.30;93.80
11836;DHT22;5977;51.972;7.640;2022-12-29T08:05:28;18.10;93.30
11836;DHT22;5977;51.972;7.640;2022-12-29T08:07:55;17.90;92.90
11836;DHT22;5977;51.972;7.640;2022-12-29T08:10:25;17.70;92.20
11836;DHT22;5977;51.972;7.640;2022-12-29T08:12:53;17.60;92.30
11836;DHT22;5977;51.972;7.640;2022-12-29T08:15:21;17.60;92.90
11836;DHT22;5977;51.972;7.640;2022-12-29T08:17:56;17.50;92.70
11836;DHT22;5977;51.972;7.640;2022-12-29T08:20:24;17.20;92.40
11836;DHT22;5977;51.972;7.640;2022-12-29T08:22:52;17.20;93.30
11836;DHT22;5977;51.972;7.640;2022-12-29T08:25:20;17.20;93.40
11836;DHT22;5977;51.972;7.640;2022-12-29T08:27:49;17.00;92.50
11836;DHT22;5977;51.972;7.640;2022-12-29T08:30:17;17.00;93.30
11836;DHT22;5977;51.972;7.640;2022-12-29T08:32:45;17.10;93.30
11836;DHT22;5977;51.972;7.640;2022-12-29T08:35:13;17.00;93.10
11836;DHT22;5977;51.972;7.640;2022-12-29T08:37:41;17.10;93.50
11836;DHT22;5977;51.972;7.640;2022-12-29T08:40:10;16.90;93.10
11836;DHT22;5977;51.972;7.640;2022-12-29T08:42:38;16.90;93.50
11836;DHT22;5977;51.972;7.640;2022-12-29T08:45:09;17.10;93.50
11836;DHT22;5977;51.972;7.640;2022-12-29T08:47:38;17.20;92.70
11836;DHT22;5977;51.972;7.640;2022-12-29T08:50:06;17.30;92.90
11836;DHT22;5977;51.972;7.640;2022-12-29T08:52:34;17.00;92.40
11836;DHT22;5977;51.972;7.640;2022-12-29T08:55:03;17.00;92.40
11836;DHT22;5977;51.972;7.640;2022-12-29T08:57:31;17.00;92.60
11836;DHT22;5977;51.972;7.640;2022-12-29T09:00:09;17.00;92.70
11836;DHT22;5977;51.972;7.640;2022-12-29T09:02:38;17.10;91.50
11836;DHT22;5977;51.972;7.640;2022-12-29T09:05:07;17.00;91.50
11836;DHT22;5977;51.972;7.640;2022-12-29T09:07:36;17.20;92.00
11836;DHT22;5977;51.972;7.640;2022-12-29T09:10:05;17.70;92.50
11836;DHT22;5977;51.972;7.640;2022-12-29T09:12:33;17.50;89.40
11836;DHT22;5977;51.972;7.640;2022-12-29T09:15:03;17.50;91.10
11836;DHT22;5977;51.972;7.640;2022-12-29T09:17:32;17.70;91.10
11836;DHT22;5977;51.972;7.640;2022-12-29T09:20:10;17.70;90.70
11836;DHT22;5977;51.972;7.640;2022-12-29T09:22:38;17.70;90.60
11836;DHT22;5977;51.972;7.640;2022-12-29T09:25:07;17.90;90.50
11836;DHT22;5977;51.972;7.640;2022-12-29T09:27:35;18.10;91.20
11836;DHT22;5977;51.972;7.640;2022-12-29T09:30:05;18.30;90.90
11836;DHT22;5977;51.972;7.640;2022-12-29T09:32:35;18.40;90.50
11836;DHT22;5977;51.972;7.640;2022-12-29T09:35:10;18.30;89.80
11836;DHT22;5977;51.972;7.640;2022-12-29T09:37:38;18.50;90.90
11836;DHT22;5977;51.972;7.640;2022-12-29T09:40:09;18.50;90.40
11836;DHT22;5977;51.972;7.640;2022-12-29T09:42:46;18.50;89.70
11836;DHT22;5977;51.972;7.640;2022-12-29T09:45:22;18.50;90.70
11836;DHT22;5977;51.972;7.640;2022-12-29T09:47:55;18.50;90.90
11836;DHT22;5977;51.972;7.640;2022-12-29T09:50:26;18.60;90.60
11836;DHT22;5977;51.972;7.640;2022-12-29T09:53:02;18.60;90.00
11836;DHT22;5977;51.972;7.640;2022-12-29T09:55:36;18.50;90.10
11836;DHT22;5977;51.972;7.640;2022-12-29T09:58:10;18.60;90.70
11836;DHT22;5977;51.972;7.640;2022-12-29T10:00:49;18.60;90.60
11836;DHT22;5977;51.972;7.640;2022-12-29T10:03:24;18.60;90.40
11836;DHT22;5977;51.972;7.640;2022-12-29T10:05:59;18.60;90.80
11836;DHT22;5977;51.972;7.640;2022-12-29T10:08:34;18.60;90.80
11836;DHT22;5977;51.972;7.640;2022-12-29T10:11:12;18.70;90.90
11836;DHT22;5977;51.972;7.640;2022-12-29T10:13:58;18.60;90.60
11836;DHT22;5977;51.972;7.640;2022-12-29T10:16:34;18.40;90.30
11836;DHT22;5977;51.972;7.640;2022-12-29T10:19:33;18.50;90.70
11836;DHT22;5977;51.972;7.640;2022-12-29T10:22:17;18.50;90.90
11836;DHT22;5977;51.972;7.640;2022-12-29T10:24:51;18.40;90.20
11836;DHT22;5977;51.972;7.640;2022-12-29T10:27:20;18.50;90.60
11836;DHT22;5977;51.972;7.640;2022-12-29T10:29:51;18.50;91.00
11836;DHT22;5977;51.972;7.640;2022-12-29T10:32:29;18.50;90.20
11836;DHT22;5977;51.972;7.640;2022-12-29T10:35:05;18.50;91.10
11836;DHT22;5977;51.972;7.640;2022-12-29T10:37:40;18.40;90.30
11836;DHT22;5977;51.972;7.640;2022-12-29T10:40:16;18.50;90.80
11836;DHT22;5977;51.972;7.640;2022-12-29T10:42:52;18.70;90.90
11836;DHT22;5977;51.972;7.640;2022-12-29T10:45:21;18.50;89.60
11836;DHT22;5977;51.972;7.640;2022-12-29T10:47:55;18.40;90.20
11836;DHT22;5977;51.972;7.640;2022-12-29T10:50:26;18.60;90.70
11836;DHT22;5977;51.972;7.640;2022-12-29T10:52:57;18.60;90.20
11836;DHT22;5977;51.972;7.640;2022-12-29T10:55:30;18.60;90.70
11836;DHT22;5977;51.972;7.640;2022-12-29T10:58:02;18.60;90.60
11836;DHT22;5977;51.972;7.640;2022-12-29T11:00:32;18.50;90.10
11836;DHT22;5977;51.972;7.640;2022-12-29T11:03:15;18.70;90.80
11836;DHT22;5977;51.972;7.640;2022-12-29T11:05:52;18.70;90.70
11836;DHT22;5977;51.972;7.640;2022-12-29T11:08:26;18.70;90.60
11836;DHT22;5977;51.972;7.640;2022-12-29T11:11:00;18.70;90.10
11836;DHT22;5977;51.972;7.640;2022-12-29T11:13:30;18.60;88.60
11836;DHT22;5977;51.972;7.640;2022-12-29T11:16:05;18.60;90.20
11836;DHT22;5977;51.972;7.640;2022-12-29T11:18:35;18.60;90.50
11836;DHT22;5977;51.972;7.640;2022-12-29T11:21:06;18.60;90.20
11836;DHT22;5977;51.972;7.640;2022-12-29T11:23:37;18.60;90.00
11836;DHT22;5977;51.972;7.640;2022-12-29T11:26:16;18.40;90.00
11836;DHT22;5977;51.972;7.640;2022-12-29T11:28:46;18.20;89.80
11836;DHT22;5977;51.972;7.640;2022-12-29T11:31:17;18.20;90.00
11836;DHT22;5977;51.972;7.640;2022-12-29T11:33:46;18.00;88.70
11836;DHT22;5977;51.972;7.640;2022-12-29T11:36:18;18.10;90.80
11836;DHT22;5977;51.972;7.640;2022-12-29T11:38:49;18.40;90.80
11836;DHT22;5977;51.972;7.640;2022-12-29T11:41:22;18.10;89.10
11836;DHT22;5977;51.972;7.640;2022-12-29T11:43:52;17.80;88.50
11836;DHT22;5977;51.972;7.640;2022-12-29T11:46:23;17.80;88.80
11836;DHT22;5977;51.972;7.640;2022-12-29T11:48:52;17.80;89.00
11836;DHT22;5977;51.972;7.640;2022-12-29T11:51:26;17.70;89.10
11836;DHT22;5977;51.972;7.640;2022-12-29T11:53:57;17.80;90.00
11836;DHT22;5977;51.972;7.640;2022-12-29T11:56:37;17.90;89.00
11836;DHT22;5977;51.972;7.640;2022-12-29T11:59:42;17.80;88.70
11836;DHT22;5977;51.972;7.640;2022-12-29T12:02:33;17.90;90.00
11836;DHT22;5977;51.972;7.640;2022-12-29T12:05:16;17.80;88.50
11836;DHT22;5977;51.972;7.640;2022-12-29T12:07:51;17.90;88.60
11836;DHT22;5977;51.972;7.640;2022-12-29T12:10:23;17.80;87.60
11836;DHT22;5977;51.972;7.640;2022-12-29T12:12:58;17.70;90.00
11836;DHT22;5977;51.972;7.640;2022-12-29T12:15:31;17.80;88.20
11836;DHT22;5977;51.972;7.640;2022-12-29T12:18:15;17.60;87.40
11836;DHT22;5977;51.972;7.640;2022-12-29T12:20:46;17.60;88.40
11836;DHT22;5977;51.972;7.640;2022-12-29T12:23:30;17.70;88.40
11836;DHT22;5977;51.972;7.640;2022-12-29T12:26:08;17.80;88.10
11836;DHT22;5977;51.972;7.640;2022-12-29T12:28:49;17.60;88.80
11836;DHT22;5977;51.972;7.640;2022-12-29T12:31:35;17.50;87.90
11836;DHT22;5977;51.972;7.640;2022-12-29T12:34:13;17.50;88.70
11836;DHT22;5977;51.972;7.640;2022-12-29T12:37:08;17.50;87.80
11836;DHT22;5977;51.972;7.640;2022-12-29T12:39:48;17.60;88.60
11836;DHT22;5977;51.972;7.640;2022-12-29T12:42:29;17.60;87.60
11836;DHT22;5977;51.972;7.640;2022-12-29T12:45:17;17.70;88.60
11836;DHT22;5977;51.972;7.640;2022-12-29T12:48:09;17.60;87.60
11836;DHT22;5977;51.972;7.640;2022-12-29T12:50:48;17.50;88.20
11836;DHT22;5977;51.972;7.640;2022-12-29T12:53:30;17.50;87.50
11836;DHT22;5977;51.972;7.640;2022-12-29T12:56:17;17.50;87.60
11836;DHT22;5977;51.972;7.640;2022-12-29T12:58:53;17.60;89.10
11836;DHT22;5977;51.972;7.640;2022-12-29T13:01:33;17.50;87.60
11836;DHT22;5977;51.972;7.640;2022-12-29T13:04:21;17.50;88.50
11836;DHT22;5977;51.972;7.640;2022-12-29T13:06:57;17.70;87.40
11836;DHT22;5977;51.972;7.640;2022-12-29T13:09:44;17.60;87.10
11836;DHT22;5977;51.972;7.640;2022-12-29T13:12:25;17.60;87.60
11836;DHT22;5977;51.972;7.640;2022-12-29T13:15:04;17.60;87.70
11836;DHT22;5977;51.972;7.640;2022-12-29T13:17:42;17.80;87.60
11836;DHT22;5977;51.972;7.640;2022-12-29T13:20:22;17.80;86.60
11836;DHT22;5977;51.972;7.640;2022-12-29T13:22:58;17.80;87.00
11836;DHT22;5977;51.972;7.640;2022-12-29T13:25:34;17.60;88.00
11836;DHT22;5977;51.972;7.640;2022-12-29T13:28:11;17.40;87.30
11836;DHT22;5977;51.972;7.640;2022-12-29T13:30:45;17.70;88.00
11836;DHT22;5977;51.972;7.640;2022-12-29T13:33:22;17.70;87.50
11836;DHT22;5977;51.972;7.640;2022-12-29T13:35:57;17.50;87.20
11836;DHT22;5977;51.972;7.640;2022-12-29T13:38:30;17.60;86.80
11836;DHT22;5977;51.972;7.640;2022-12-29T13:41:04;17.60;88.70
11836;DHT22;5977;51.972;7.640;2022-12-29T13:43:35;17.60;88.30
11836;DHT22;5977;51.972;7.640;2022-12-29T13:46:09;17.50;88.30
11836;DHT22;5977;51.972;7.640;2022-12-29T13:48:43;17.50;89.80
11836;DHT22;5977;51.972;7.640;2022-12-29T13:51:13;17.20;88.50
11836;DHT22;5977;51.972;7.640;2022-12-29T13:54:05;17.40;88.40
11836;DHT22;5977;51.972;7.640;2022-12-29T13:56:38;17.40;88.50
11836;DHT22;5977;51.972;7.640;2022-12-29T13:59:16;17.30;88.30
11836;DHT22;5977;51.972;7.640;2022-12-29T14:01:50;17.40;88.80
11836;DHT22;5977;51.972;7.640;2022-12-29T14:04:22;17.40;88.40
11836;DHT22;5977;51.972;7.640;2022-12-29T14:07:02;17.30;87.80
11836;DHT22;5977;51.972;7.640;2022-12-29T14:09:43;17.20;88.40
11836;DHT22;5977;51.972;7.640;2022-12-29T14:12:35;17.20;88.40
11836;DHT22;5977;51.972;7.640;2022-12-29T14:15:21;17.20;88.90
11836;DHT22;5977;51.972;7.640;2022-12-29T14:18:09;17.10;87.30
11836;DHT22;5977;51.972;7.640;2022-12-29T14:20:37;17.00;88.70
11836;DHT22;5977;51.972;7.640;2022-12-29T14:23:24;17.10;89.40
11836;DHT22;5977;51.972;7.640;2022-12-29T14:26:09;17.10;88.70
11836;DHT22;5977;51.972;7.640;2022-12-29T14:28:39;17.10;88.90
11836;DHT22;5977;51.972;7.640;2022-12-29T14:31:35;17.00;89.00
11836;DHT22;5977;51.972;7.640;2022-12-29T14:34:30;17.20;88.70
11836;DHT22;5977;51.972;7.640;2022-12-29T14:37:11;17.00;87.30
11836;DHT22;5977;51.972;7.640;2022-12-29T14:39:48;17.10;88.70
11836;DHT22;5977;51.972;7.640;2022-12-29T14:42:20;16.90;88.90
11836;DHT22;5977;51.972;7.640;2022-12-29T14:44:51;16.90;88.70
11836;DHT22;5977;51.972;7.640;2022-12-29T14:47:26;16.90;88.50
11836;DHT22;5977;51.972;7.640;2022-12-29T14:49:55;17.00;88.70
11836;DHT22;5977;51.972;7.640;2022-12-29T14:52:24;16.90;86.90
11836;DHT22;5977;51.972;7.640;2022-12-29T14:54:54;16.90;87.50
11836;DHT22;5977;51.972;7.640;2022-12-29T14:57:35;16.70;87.20
11836;DHT22;5977;51.972;7.640;2022-12-29T15:00:15;16.80;87.00
11836;DHT22;5977;51.972;7.640;2022-12-29T15:02:49;16.70;86.50
11836;DHT22;5977;51.972;7.640;2022-12-29T15:05:34;16.80;87.40
11836;DHT22;5977;51.972;7.640;2022-12-29T15:08:04;16.80;86.90
11836;DHT22;5977;51.972;7.640;2022-12-29T15:10:38;16.70;87.00
11836;DHT22;5977;51.972;7.640;2022-12-29T15:13:15;16.70;87.30
11836;DHT22;5977;51.972;7.640;2022-12-29T15:15:44;16.50;86.60
11836;DHT22;5977;51.972;7.640;2022-12-29T15:18:22;16.50;86.90
11836;DHT22;5977;51.972;7.640;2022-12-29T15:20:52;16.50;87.10
11836;DHT22;5977;51.972;7.640;2022-12-29T15:23:21;16.60;87.30
11836;DHT22;5977;51.972;7.640;2022-12-29T15:25:53;16.70;87.50
11836;DHT22;5977;51.972;7.640;2022-12-29T15:28:21;16.70;87.30
11836;DHT22;5977;51.972;7.640;2022-12-29T15:30:51;16.60;87.20
11836;DHT22;5977;51.972;7.640;2022-12-29T15:33:23;16.60;87.20
11836;DHT22;5977;51.972;7.640;2022-12-29T15:35:52;16.60;86.50
11836;DHT22;5977;51.972;7.640;2022-12-29T15:38:23;16.70;87.10
11836;DHT22;5977;51.972;7.640;2022-12-29T15:41:02;16.70;87.90
11836;DHT22;5977;51.972;7.640;2022-12-29T15:43:45;16.60;88.10
11836;DHT22;5977;51.972;7.640;2022-12-29T15:46:16;16.70;90.30
11836;DHT22;5977;51.972;7.640;2022-12-29T15:48:46;16.40;90.40
11836;DHT22;5977;51.972;7.640;2022-12-29T15:51:19;16.60;90.90
11836;DHT22;5977;51.972;7.640;2022-12-29T15:53:50;16.60;90.50
11836;DHT22;5977;51.972;7.640;2022-12-29T15:56:19;16.50;90.90
11836;DHT22;5977;51.972;7.640;2022-12-29T15:58:49;16.60;91.20
11836;DHT22;5977;51.972;7.640;2022-12-29T16:01:19;16.70;91.50
11836;DHT22;5977;51.972;7.640;2022-12-29T16:03:50;16.60;91.60
11836;DHT22;5977;51.972;7.640;2022-12-29T16:06:28;16.70;91.30
11836;DHT22;5977;51.972;7.640;2022-12-29T16:08:57;16.70;90.80
11836;DHT22;5977;51.972;7.640;2022-12-29T16:11:30;16.70;91.10
11836;DHT22;5977;51.972;7.640;2022-12-29T16:13:59;16.50;90.50
11836;DHT22;5977;51.972;7.640;2022-12-29T16:16:31;16.60;91.20
11836;DHT22;5977;51.972;7.640;2022-12-29T16:19:08;16.60;91.20
11836;DHT22;5977;51.972;7.640;2022-12-29T16:21:37;16.40;91.10
11836;DHT22;5977;51.972;7.640;2022-12-29T16:24:08;16.40;91.00
11836;DHT22;5977;51.972;7.640;2022-12-29T16:26:46;16.60;91.20
11836;DHT22;5977;51.972;7.640;2022-12-29T16:29:15;16.60;90.90